createdAt,value
2022-08-19T00:00:48.183Z,21.60
2022-08-19T00:01:53.134Z,18.80
2022-08-19T00:02:50.456Z,19.20
2022-08-19T00:03:48.170Z,25.40
2022-08-19T00:04:48.193Z,17.70
2022-08-19T00:05:48.124Z,22.40
2022-08-19T00:06:48.115Z,20.60
2022-08-19T00:07:48.103Z,25.30
2022-08-19T00:08:48.131Z,22.00
2022-08-19T00:09:48.102Z,26.40
2022-08-19T00:10:48.052Z,21.10
2022-08-19T00:11:48.092Z,21.40
2022-08-19T00:12:48.112Z,15.20
2022-08-19T00:13:48.032Z,15.30
2022-08-19T00:14:48.078Z,14.20
2022-08-19T00:15:47.991Z,20.90
2022-08-19T00:16:47.974Z,15.70
2022-08-19T00:17:47.973Z,21.00
2022-08-19T00:18:47.964Z,19.30
2022-08-19T00:19:47.943Z,19.50
2022-08-19T00:20:47.923Z,20.40
2022-08-19T00:21:47.913Z,19.60
2022-08-19T00:22:47.943Z,21.20
2022-08-19T00:23:47.903Z,21.60
2022-08-19T00:24:50.917Z,24.50
2022-08-19T00:25:48.871Z,22.60
2022-08-19T00:26:47.844Z,24.10
2022-08-19T00:27:47.834Z,25.90
2022-08-19T00:28:47.834Z,23.40
2022-08-19T00:29:52.661Z,24.10
2022-08-19T00:30:48.793Z,23.60
2022-08-19T00:31:47.774Z,27.60
2022-08-19T00:32:47.774Z,28.00
2022-08-19T00:33:47.764Z,23.30
2022-08-19T00:34:47.735Z,26.10
2022-08-19T00:35:47.727Z,26.70
2022-08-19T00:36:48.718Z,22.00
2022-08-19T00:37:47.703Z,15.70
2022-08-19T00:38:47.695Z,27.10
2022-08-19T00:39:49.066Z,28.60
2022-08-19T00:40:47.669Z,22.80
2022-08-19T00:41:47.979Z,29.80
2022-08-19T00:42:47.658Z,27.40
2022-08-19T00:43:47.639Z,22.30
2022-08-19T00:44:47.610Z,33.30
2022-08-19T00:45:47.593Z,30.30
2022-08-19T00:46:55.289Z,20.00
2022-08-19T00:47:48.575Z,19.90
2022-08-19T00:48:47.573Z,26.70
2022-08-19T00:49:47.557Z,20.10
2022-08-19T00:50:52.044Z,21.30
2022-08-19T00:51:47.525Z,21.80
2022-08-19T00:52:47.553Z,23.60
2022-08-19T00:53:47.507Z,24.50
2022-08-19T00:54:51.986Z,15.50
2022-08-19T00:55:48.464Z,15.40
2022-08-19T00:56:47.448Z,19.30
2022-08-19T00:57:47.435Z,22.50
2022-08-19T00:58:47.445Z,19.80
2022-08-19T01:00:01.210Z,17.10
2022-08-19T01:00:48.483Z,23.30
2022-08-19T01:01:47.463Z,17.50
2022-08-19T01:02:48.043Z,23.70
2022-08-19T01:03:56.788Z,22.90
2022-08-19T01:04:48.344Z,21.20
2022-08-19T01:05:47.327Z,29.20
2022-08-19T01:06:47.305Z,22.70
2022-08-19T01:07:47.296Z,30.10
2022-08-19T01:08:47.296Z,24.60
2022-08-19T01:09:47.292Z,18.90
2022-08-19T01:10:47.259Z,24.00
2022-08-19T01:11:47.257Z,32.60
2022-08-19T01:12:47.288Z,17.10
2022-08-19T01:13:50.116Z,22.20
2022-08-19T01:14:47.205Z,22.80
2022-08-19T01:15:47.197Z,23.50
2022-08-19T01:16:47.177Z,22.40
2022-08-19T01:17:47.179Z,17.50
2022-08-19T01:18:47.177Z,22.80
2022-08-19T01:19:47.147Z,26.30
2022-08-19T01:20:47.118Z,33.10
2022-08-19T01:21:47.108Z,28.20
2022-08-19T01:22:47.203Z,27.70
2022-08-19T01:23:47.108Z,29.50
2022-08-19T01:24:49.713Z,30.30
2022-08-19T01:25:47.059Z,28.70
2022-08-19T01:26:47.041Z,30.30
2022-08-19T01:27:47.034Z,34.50
2022-08-19T01:28:47.028Z,30.70
2022-08-19T01:29:47.029Z,30.10
2022-08-19T01:30:50.973Z,28.30
2022-08-19T01:31:46.977Z,27.00
2022-08-19T01:32:47.039Z,31.10
2022-08-19T01:33:46.966Z,25.50
2022-08-19T01:34:46.942Z,34.80
2022-08-19T01:35:46.937Z,29.70
2022-08-19T01:36:46.907Z,32.00
2022-08-19T01:37:46.899Z,28.80
2022-08-19T01:38:46.902Z,26.60
2022-08-19T01:39:46.913Z,22.10
2022-08-19T01:40:46.851Z,25.10
2022-08-19T01:41:46.849Z,30.20
2022-08-19T01:42:46.896Z,33.30
2022-08-19T01:44:18.159Z,29.30
2022-08-19T01:44:47.799Z,30.20
2022-08-19T01:45:46.791Z,27.40
2022-08-19T01:46:46.783Z,29.20
2022-08-19T01:47:52.780Z,28.10
2022-08-19T01:48:47.771Z,30.70
2022-08-19T01:49:46.748Z,26.20
2022-08-19T01:50:46.721Z,22.30
2022-08-19T01:51:46.719Z,24.70
2022-08-19T01:52:46.786Z,25.10
2022-08-19T01:53:47.702Z,32.80
2022-08-19T01:54:46.674Z,32.70
2022-08-19T01:55:46.664Z,33.40
2022-08-19T01:56:46.643Z,26.60
2022-08-19T01:57:46.635Z,30.40
2022-08-19T01:58:46.633Z,23.00
2022-08-19T01:59:46.639Z,30.50
2022-08-19T02:00:46.607Z,28.80
2022-08-19T02:01:46.626Z,28.90
2022-08-19T02:02:46.664Z,20.30
2022-08-19T02:03:46.576Z,30.80
2022-08-19T02:04:46.553Z,24.70
2022-08-19T02:05:46.573Z,24.80
2022-08-19T02:06:46.511Z,25.60
2022-08-19T02:07:46.500Z,27.20
2022-08-19T02:08:46.497Z,20.70
2022-08-19T02:09:46.480Z,18.90
2022-08-19T02:10:46.464Z,17.70
2022-08-19T02:11:46.461Z,23.50
2022-08-19T02:12:46.526Z,24.50
2022-08-19T02:13:46.447Z,20.50
2022-08-19T02:14:46.413Z,22.90
2022-08-19T02:15:46.396Z,25.40
2022-08-19T02:16:46.409Z,23.00
2022-08-19T02:17:46.375Z,24.80
2022-08-19T02:18:46.361Z,28.20
2022-08-19T02:19:46.348Z,22.80
2022-08-19T02:20:46.323Z,22.60
2022-08-19T02:21:46.313Z,31.10
2022-08-19T02:22:46.314Z,19.40
2022-08-19T02:23:46.306Z,23.70
2022-08-19T02:24:46.275Z,21.90
2022-08-19T02:25:46.268Z,27.40
2022-08-19T02:26:46.259Z,18.60
2022-08-19T02:27:46.234Z,22.20
2022-08-19T02:28:46.234Z,27.60
2022-08-19T02:29:46.215Z,24.10
2022-08-19T02:30:46.191Z,25.30
2022-08-19T02:31:46.184Z,27.80
2022-08-19T02:32:46.231Z,25.20
2022-08-19T02:33:46.169Z,29.60
2022-08-19T02:34:46.141Z,21.60
2022-08-19T02:35:46.139Z,22.10
2022-08-19T02:36:46.114Z,33.10
2022-08-19T02:37:47.124Z,31.50
2022-08-19T02:38:47.165Z,30.50
2022-08-19T02:39:47.140Z,24.40
2022-08-19T02:40:46.068Z,23.50
2022-08-19T02:41:46.054Z,22.50
2022-08-19T02:42:46.052Z,23.80
2022-08-19T02:44:22.838Z,21.20
2022-08-19T02:44:47.006Z,25.10
2022-08-19T02:45:45.996Z,21.90
2022-08-19T02:46:45.976Z,29.30
2022-08-19T02:47:45.982Z,28.90
2022-08-19T02:48:45.946Z,22.70
2022-08-19T02:49:45.944Z,24.90
2022-08-19T02:50:51.933Z,29.60
2022-08-19T02:51:46.963Z,18.70
2022-08-19T02:52:45.914Z,23.90
2022-08-19T02:53:45.895Z,32.00
2022-08-19T02:54:45.876Z,32.60
2022-08-19T02:55:46.367Z,31.60
2022-08-19T02:56:45.844Z,23.40
2022-08-19T02:57:45.844Z,22.60
2022-08-19T02:58:45.832Z,28.60
2022-08-19T02:59:45.809Z,22.70
2022-08-19T03:00:45.796Z,26.00
2022-08-19T03:01:45.847Z,21.70
2022-08-19T03:02:45.776Z,22.00
2022-08-19T03:03:45.759Z,18.50
2022-08-19T03:04:45.746Z,29.30
2022-08-19T03:05:55.756Z,30.70
2022-08-19T03:06:46.720Z,26.10
2022-08-19T03:07:45.718Z,25.40
2022-08-19T03:08:45.695Z,26.80
2022-08-19T03:09:45.675Z,20.50
2022-08-19T03:10:45.664Z,22.40
2022-08-19T03:11:45.666Z,16.00
2022-08-19T03:12:45.660Z,15.60
2022-08-19T03:13:45.626Z,16.00
2022-08-19T03:14:45.616Z,19.60
2022-08-19T03:15:45.598Z,19.80
2022-08-19T03:16:45.579Z,21.10
2022-08-19T03:17:45.581Z,20.60
2022-08-19T03:18:45.549Z,21.70
2022-08-19T03:19:45.558Z,25.10
2022-08-19T03:20:45.525Z,26.20
2022-08-19T03:21:45.528Z,24.70
2022-08-19T03:22:45.515Z,23.90
2022-08-19T03:23:45.502Z,25.80
2022-08-19T03:24:45.474Z,23.20
2022-08-19T03:25:45.476Z,23.90
2022-08-19T03:26:45.459Z,19.30
2022-08-19T03:27:45.457Z,26.50
2022-08-19T03:28:51.010Z,21.70
2022-08-19T03:29:46.409Z,19.50
2022-08-19T03:30:45.402Z,17.90
2022-08-19T03:31:52.609Z,19.90
2022-08-19T03:32:46.433Z,22.60
2022-08-19T03:33:46.366Z,22.60
2022-08-19T03:34:45.344Z,27.60
2022-08-19T03:35:45.328Z,24.70
2022-08-19T03:36:45.307Z,20.50
2022-08-19T03:37:45.307Z,18.20
2022-08-19T03:38:45.286Z,21.70
2022-08-19T03:39:45.340Z,18.30
2022-08-19T03:40:45.256Z,20.60
2022-08-19T03:41:46.502Z,18.60
2022-08-19T03:42:49.063Z,20.60
2022-08-19T03:43:45.227Z,19.20
2022-08-19T03:44:45.227Z,23.30
2022-08-19T03:45:45.197Z,20.40
2022-08-19T03:46:45.178Z,23.20
2022-08-19T03:47:45.178Z,19.30
2022-08-19T03:48:45.152Z,24.90
2022-08-19T03:49:48.977Z,21.90
2022-08-19T03:50:45.127Z,24.20
2022-08-19T03:51:45.121Z,24.70
2022-08-19T03:52:45.458Z,24.10
2022-08-19T03:53:45.091Z,25.40
2022-08-19T03:54:45.071Z,21.90
2022-08-19T03:55:45.059Z,20.60
2022-08-19T03:56:45.051Z,17.50
2022-08-19T03:57:45.038Z,21.90
2022-08-19T03:58:45.029Z,22.20
2022-08-19T03:59:45.076Z,24.80
2022-08-19T04:00:44.989Z,18.60
2022-08-19T04:01:45.051Z,23.70
2022-08-19T04:02:58.880Z,21.50
2022-08-19T04:03:45.959Z,17.50
2022-08-19T04:04:44.960Z,23.50
2022-08-19T04:05:44.919Z,22.40
2022-08-19T04:06:44.920Z,17.90
2022-08-19T04:07:44.911Z,23.40
2022-08-19T04:08:44.891Z,19.70
2022-08-19T04:09:44.889Z,17.90
2022-08-19T04:10:44.865Z,24.00
2022-08-19T04:11:45.191Z,24.20
2022-08-19T04:12:44.848Z,24.50
2022-08-19T04:13:44.822Z,21.30
2022-08-19T04:14:44.817Z,21.00
2022-08-19T04:15:44.791Z,25.60
2022-08-19T04:16:44.849Z,25.60
2022-08-19T04:17:44.777Z,22.60
2022-08-19T04:18:44.759Z,20.60
2022-08-19T04:19:44.743Z,20.80
2022-08-19T04:20:44.733Z,20.40
2022-08-19T04:21:44.714Z,22.30
2022-08-19T04:22:44.733Z,23.80
2022-08-19T04:23:45.913Z,24.40
2022-08-19T04:24:44.681Z,24.20
2022-08-19T04:25:44.665Z,28.20
2022-08-19T04:26:44.664Z,23.00
2022-08-19T04:27:44.864Z,22.00
2022-08-19T04:28:44.981Z,27.90
2022-08-19T04:29:44.721Z,23.30
2022-08-19T04:30:44.600Z,30.20
2022-08-19T04:31:44.589Z,35.40
2022-08-19T04:32:44.574Z,33.30
2022-08-19T04:33:44.551Z,24.10
2022-08-19T04:35:02.156Z,31.10
2022-08-19T04:35:45.522Z,28.40
2022-08-19T04:36:44.535Z,22.70
2022-08-19T04:37:44.500Z,24.60
2022-08-19T04:38:44.492Z,20.10
2022-08-19T04:39:44.525Z,18.30
2022-08-19T04:40:44.471Z,23.10
2022-08-19T04:41:44.476Z,26.40
2022-08-19T04:42:44.434Z,25.40
2022-08-19T04:43:44.445Z,32.30
2022-08-19T04:44:46.342Z,27.40
2022-08-19T04:45:44.644Z,22.00
2022-08-19T04:46:51.417Z,26.70
2022-08-19T04:47:47.780Z,23.60
2022-08-19T04:48:49.195Z,29.40
2022-08-19T04:49:44.351Z,22.50
2022-08-19T04:50:44.332Z,24.00
2022-08-19T04:51:44.332Z,22.30
2022-08-19T04:52:44.308Z,22.20
2022-08-19T04:53:44.286Z,20.60
2022-08-19T04:54:44.431Z,24.60
2022-08-19T04:55:44.271Z,34.90
2022-08-19T04:56:44.274Z,30.80
2022-08-19T04:57:44.241Z,28.50
2022-08-19T04:58:44.226Z,30.10
2022-08-19T04:59:44.214Z,24.20
2022-08-19T05:00:44.280Z,31.20
2022-08-19T05:01:44.231Z,22.20
2022-08-19T05:02:44.163Z,21.20
2022-08-19T05:03:44.154Z,23.10
2022-08-19T05:04:44.142Z,24.80
2022-08-19T05:05:44.587Z,23.90
2022-08-19T05:06:44.135Z,20.70
2022-08-19T05:07:44.101Z,19.80
2022-08-19T05:08:44.090Z,26.20
2022-08-19T05:09:58.441Z,27.40
2022-08-19T05:10:45.071Z,20.30
2022-08-19T05:11:44.051Z,21.40
2022-08-19T05:12:44.965Z,24.20
2022-08-19T05:13:44.012Z,25.30
2022-08-19T05:14:44.013Z,23.90
2022-08-19T05:15:44.001Z,21.60
2022-08-19T05:16:44.012Z,19.40
2022-08-19T05:17:43.979Z,16.10
2022-08-19T05:18:43.955Z,15.00
2022-08-19T05:19:43.952Z,19.50
2022-08-19T05:20:43.925Z,24.50
2022-08-19T05:21:43.943Z,17.60
2022-08-19T05:22:43.919Z,17.60
2022-08-19T05:23:43.895Z,18.50
2022-08-19T05:25:02.432Z,22.40
2022-08-19T05:25:44.865Z,21.70
2022-08-19T05:26:43.862Z,21.60
2022-08-19T05:27:43.842Z,21.10
2022-08-19T05:28:43.835Z,22.20
2022-08-19T05:29:43.803Z,24.60
2022-08-19T05:30:47.478Z,19.80
2022-08-19T05:31:43.797Z,20.70
2022-08-19T05:32:43.806Z,17.40
2022-08-19T05:33:43.757Z,16.60
2022-08-19T05:34:43.744Z,20.80
2022-08-19T05:35:43.734Z,26.20
2022-08-19T05:36:43.734Z,21.50
2022-08-19T05:37:43.696Z,21.10
2022-08-19T05:38:43.697Z,22.90
2022-08-19T05:39:44.979Z,21.50
2022-08-19T05:40:43.665Z,26.90
2022-08-19T05:41:43.663Z,20.90
2022-08-19T05:42:43.642Z,26.40
2022-08-19T05:43:43.624Z,23.50
2022-08-19T05:44:43.616Z,23.40
2022-08-19T05:45:43.595Z,22.60
2022-08-19T05:46:43.595Z,27.40
2022-08-19T05:47:43.580Z,29.10
2022-08-19T05:48:43.571Z,27.00
2022-08-19T05:49:43.543Z,28.20
2022-08-19T05:50:43.536Z,30.50
2022-08-19T05:51:43.536Z,25.50
2022-08-19T05:52:45.886Z,29.30
2022-08-19T05:53:44.485Z,23.50
2022-08-19T05:54:43.497Z,27.40
2022-08-19T05:55:43.470Z,22.90
2022-08-19T05:56:43.449Z,22.80
2022-08-19T05:57:43.464Z,26.90
2022-08-19T05:58:43.427Z,20.90
2022-08-19T05:59:43.416Z,20.90
2022-08-19T06:00:43.394Z,29.60
2022-08-19T06:01:43.390Z,23.80
2022-08-19T06:02:43.442Z,23.80
2022-08-19T06:03:43.358Z,29.00
2022-08-19T06:04:43.352Z,30.00
2022-08-19T06:05:49.643Z,24.10
2022-08-19T06:06:44.365Z,28.90
2022-08-19T06:07:43.302Z,31.40
2022-08-19T06:08:43.300Z,32.40
2022-08-19T06:09:43.779Z,34.10
2022-08-19T06:10:44.274Z,34.80
2022-08-19T06:11:43.268Z,31.10
2022-08-19T06:12:43.249Z,29.60
2022-08-19T06:13:43.226Z,31.00
2022-08-19T06:14:43.235Z,33.10
2022-08-19T06:15:43.200Z,34.00
2022-08-19T06:16:43.197Z,31.80
2022-08-19T06:17:43.173Z,34.90
2022-08-19T06:18:43.160Z,33.10
2022-08-19T06:19:43.150Z,26.30
2022-08-19T06:20:55.426Z,34.40
2022-08-19T06:21:44.149Z,29.40
2022-08-19T06:22:43.113Z,28.30
2022-08-19T06:23:43.088Z,35.30
2022-08-19T06:24:43.087Z,28.60
2022-08-19T06:25:43.060Z,28.40
2022-08-19T06:26:43.154Z,30.50
2022-08-19T06:28:44.031Z,34.70
2022-08-19T06:29:43.020Z,31.60
2022-08-19T06:30:43.010Z,30.20
2022-08-19T06:31:43.000Z,30.90
2022-08-19T06:32:43.154Z,33.50
2022-08-19T06:33:42.970Z,25.50
2022-08-19T06:34:42.959Z,21.80
2022-08-19T06:35:42.931Z,34.90
2022-08-19T06:36:42.930Z,34.30
2022-08-19T06:37:43.871Z,27.20
2022-08-19T06:38:42.891Z,22.30
2022-08-19T06:39:42.949Z,22.70
2022-08-19T06:41:48.804Z,31.60
2022-08-19T06:42:54.265Z,33.00
2022-08-19T06:43:43.827Z,34.70
2022-08-19T06:45:42.834Z,29.70
2022-08-19T06:46:42.809Z,29.00
2022-08-19T06:47:42.789Z,27.00
2022-08-19T06:48:45.919Z,33.90
2022-08-19T06:49:44.380Z,30.30
2022-08-19T06:50:42.769Z,25.50
2022-08-19T06:51:44.209Z,26.60
2022-08-19T06:52:42.728Z,24.70
2022-08-19T06:53:42.751Z,32.80
2022-08-19T06:54:53.700Z,25.00
2022-08-19T06:55:43.735Z,29.20
2022-08-19T06:56:42.671Z,28.90
2022-08-19T06:57:42.651Z,31.40
2022-08-19T06:58:42.643Z,30.60
2022-08-19T06:59:42.648Z,31.10
2022-08-19T07:00:42.622Z,29.00
2022-08-19T07:01:42.600Z,32.10
2022-08-19T07:02:46.297Z,30.10
2022-08-19T07:03:43.593Z,29.60
2022-08-19T07:04:42.697Z,29.30
2022-08-19T07:05:45.497Z,28.10
2022-08-19T07:06:43.979Z,29.40
2022-08-19T07:07:42.760Z,34.10
2022-08-19T07:08:42.519Z,27.60
2022-08-19T07:09:42.499Z,31.30
2022-08-19T07:10:42.895Z,26.60
2022-08-19T07:11:42.461Z,27.10
2022-08-19T07:12:42.460Z,23.60
2022-08-19T07:13:42.439Z,24.00
2022-08-19T07:14:42.430Z,25.90
2022-08-19T07:15:42.448Z,24.40
2022-08-19T07:16:43.128Z,25.80
2022-08-19T07:17:42.395Z,25.50
2022-08-19T07:18:43.914Z,26.40
2022-08-19T07:19:42.353Z,29.10
2022-08-19T07:20:42.375Z,37.40
2022-08-19T07:21:42.341Z,32.80
2022-08-19T07:22:42.323Z,32.00
2022-08-19T07:23:42.316Z,34.10
2022-08-19T07:24:50.997Z,25.70
2022-08-19T07:25:43.291Z,29.40
2022-08-19T07:26:42.376Z,31.30
2022-08-19T07:27:42.262Z,26.40
2022-08-19T07:28:46.052Z,35.80
2022-08-19T07:29:43.222Z,29.90
2022-08-19T07:30:42.236Z,29.70
2022-08-19T07:31:43.504Z,32.90
2022-08-19T07:32:42.191Z,35.70
2022-08-19T07:33:42.170Z,31.20
2022-08-19T07:34:42.176Z,31.10
2022-08-19T07:35:42.153Z,28.70
2022-08-19T07:36:42.132Z,34.90
2022-08-19T07:37:42.127Z,36.20
2022-08-19T07:38:42.105Z,35.70
2022-08-19T07:39:42.219Z,37.60
2022-08-19T07:40:42.091Z,29.50
2022-08-19T07:41:42.074Z,32.50
2022-08-19T07:42:42.059Z,35.50
2022-08-19T07:43:42.034Z,32.40
2022-08-19T07:44:42.202Z,30.20
2022-08-19T07:45:43.012Z,25.20
2022-08-19T07:46:42.004Z,28.00
2022-08-19T07:47:58.668Z,29.40
2022-08-19T07:48:42.976Z,32.40
2022-08-19T07:49:41.963Z,30.40
2022-08-19T07:50:41.952Z,35.10
2022-08-19T07:51:41.935Z,38.20
2022-08-19T07:52:41.924Z,36.10
2022-08-19T07:53:41.905Z,30.70
2022-08-19T07:54:41.916Z,32.30
2022-08-19T07:55:43.760Z,32.10
2022-08-19T07:56:56.554Z,29.50
2022-08-19T07:57:41.906Z,36.60
2022-08-19T07:58:41.835Z,36.80
2022-08-19T07:59:41.842Z,31.60
2022-08-19T08:00:41.843Z,35.20
2022-08-19T08:01:42.115Z,35.60
2022-08-19T08:02:41.784Z,29.90
2022-08-19T08:03:41.776Z,30.60
2022-08-19T08:04:41.767Z,33.10
2022-08-19T08:05:43.708Z,28.10
2022-08-19T08:06:41.725Z,36.10
2022-08-19T08:07:41.737Z,30.50
2022-08-19T08:08:44.318Z,36.50
2022-08-19T08:09:42.749Z,33.80
2022-08-19T08:10:41.700Z,31.50
2022-08-19T08:11:41.676Z,33.40
2022-08-19T08:12:41.645Z,35.00
2022-08-19T08:13:41.646Z,30.70
2022-08-19T08:14:44.157Z,31.80
2022-08-19T08:15:43.303Z,34.70
2022-08-19T08:16:47.032Z,26.20
2022-08-19T08:17:49.443Z,32.50
2022-08-19T08:18:42.573Z,29.60
2022-08-19T08:19:41.569Z,32.60
2022-08-19T08:20:41.535Z,31.40
2022-08-19T08:21:41.555Z,32.20
2022-08-19T08:22:41.515Z,23.40
2022-08-19T08:23:41.552Z,28.70
2022-08-19T08:24:41.526Z,31.40
2022-08-19T08:25:41.475Z,35.20
2022-08-19T08:26:41.467Z,27.60
2022-08-19T08:27:42.454Z,22.80
2022-08-19T08:28:41.452Z,29.10
2022-08-19T08:29:42.443Z,28.10
2022-08-19T08:30:41.407Z,30.10
2022-08-19T08:31:41.401Z,30.80
2022-08-19T08:32:41.408Z,25.20
2022-08-19T08:33:41.375Z,26.20
2022-08-19T08:34:41.375Z,25.70
2022-08-19T08:35:41.350Z,26.70
2022-08-19T08:36:41.332Z,28.20
2022-08-19T08:37:41.330Z,29.40
2022-08-19T08:38:41.913Z,32.70
2022-08-19T08:39:41.363Z,28.00
2022-08-19T08:40:41.277Z,28.10
2022-08-19T08:41:41.265Z,27.10
2022-08-19T08:42:41.259Z,25.90
2022-08-19T08:43:41.237Z,31.00
2022-08-19T08:44:41.250Z,28.40
2022-08-19T08:45:42.581Z,26.50
2022-08-19T08:46:41.197Z,22.20
2022-08-19T08:47:42.009Z,30.80
2022-08-19T08:48:41.179Z,26.70
2022-08-19T08:49:41.167Z,24.50
2022-08-19T08:50:41.146Z,28.50
2022-08-19T08:52:41.127Z,24.70
2022-08-19T08:53:42.029Z,24.60
2022-08-19T08:54:41.106Z,23.30
2022-08-19T08:55:42.077Z,20.00
2022-08-19T08:56:41.070Z,24.10
2022-08-19T08:57:50.553Z,22.90
2022-08-19T08:58:42.066Z,31.10
2022-08-19T08:59:41.027Z,31.80
2022-08-19T09:00:41.006Z,27.70
2022-08-19T09:01:41.038Z,27.60
2022-08-19T09:02:40.990Z,32.20
2022-08-19T09:03:40.965Z,33.00
2022-08-19T09:04:40.975Z,28.90
2022-08-19T09:05:48.286Z,29.40
2022-08-19T09:06:41.945Z,29.40
2022-08-19T09:07:43.617Z,27.80
2022-08-19T09:08:40.907Z,28.00
2022-08-19T09:09:42.002Z,27.70
2022-08-19T09:10:44.296Z,28.80
2022-08-19T09:11:42.844Z,30.50
2022-08-19T09:12:43.027Z,27.00
2022-08-19T09:13:40.826Z,30.60
2022-08-19T09:14:50.179Z,29.40
2022-08-19T09:15:42.005Z,28.30
2022-08-19T09:16:40.808Z,27.10
2022-08-19T09:17:40.783Z,27.00
2022-08-19T09:18:40.779Z,27.80
2022-08-19T09:19:40.780Z,22.70
2022-08-19T09:20:42.533Z,27.00
2022-08-19T09:21:40.726Z,29.50
2022-08-19T09:22:40.719Z,27.60
2022-08-19T09:23:40.698Z,29.80
2022-08-19T09:24:40.697Z,25.30
2022-08-19T09:25:40.677Z,26.30
2022-08-19T09:26:47.646Z,30.30
2022-08-19T09:27:42.959Z,24.00
2022-08-19T09:28:40.638Z,29.60
2022-08-19T09:29:40.660Z,28.20
2022-08-19T09:30:40.610Z,28.10
2022-08-19T09:31:40.588Z,30.90
2022-08-19T09:32:40.597Z,31.30
2022-08-19T09:33:40.569Z,29.90
2022-08-19T09:34:44.279Z,26.40
2022-08-19T09:35:49.429Z,29.20
2022-08-19T09:36:41.534Z,26.80
2022-08-19T09:37:40.613Z,29.60
2022-08-19T09:38:43.407Z,27.60
2022-08-19T09:39:40.538Z,26.10
2022-08-19T09:40:40.479Z,30.60
2022-08-19T09:41:40.458Z,29.90
2022-08-19T09:42:50.042Z,26.80
2022-08-19T09:43:44.692Z,26.90
2022-08-19T09:44:41.439Z,31.60
2022-08-19T09:45:40.408Z,27.10
2022-08-19T09:46:40.411Z,27.20
2022-08-19T09:47:40.812Z,27.90
2022-08-19T09:48:40.368Z,29.00
2022-08-19T09:49:40.374Z,27.40
2022-08-19T09:50:51.771Z,29.70
2022-08-19T09:51:41.341Z,27.60
2022-08-19T09:52:40.329Z,28.50
2022-08-19T09:53:41.319Z,28.50
2022-08-19T09:54:40.347Z,29.60
2022-08-19T09:55:40.280Z,29.70
2022-08-19T09:56:40.280Z,25.90
2022-08-19T09:57:40.249Z,29.00
2022-08-19T09:58:40.244Z,28.40
2022-08-19T09:59:40.238Z,30.60
2022-08-19T10:00:40.226Z,28.00
2022-08-19T10:01:40.262Z,25.60
2022-08-19T10:02:40.189Z,23.50
2022-08-19T10:03:41.175Z,27.20
2022-08-19T10:04:40.169Z,29.30
2022-08-19T10:05:42.322Z,24.40
2022-08-19T10:06:46.504Z,29.30
2022-08-19T10:07:41.111Z,28.00
2022-08-19T10:08:40.122Z,23.30
2022-08-19T10:09:41.100Z,22.80
2022-08-19T10:10:40.078Z,23.40
2022-08-19T10:11:43.619Z,24.60
2022-08-19T10:12:41.061Z,23.70
2022-08-19T10:13:40.039Z,22.80
2022-08-19T10:14:40.038Z,26.80
2022-08-19T10:15:47.592Z,24.80
2022-08-19T10:16:41.002Z,23.90
2022-08-19T10:17:39.992Z,24.50
2022-08-19T10:18:40.971Z,25.30
2022-08-19T10:19:39.976Z,24.00
2022-08-19T10:20:39.950Z,24.10
2022-08-19T10:21:40.480Z,24.20
2022-08-19T10:22:39.921Z,21.70
2022-08-19T10:23:39.901Z,22.40
2022-08-19T10:24:39.901Z,23.60
2022-08-19T10:25:39.878Z,25.50
2022-08-19T10:26:39.884Z,23.50
2022-08-19T10:27:39.869Z,21.60
2022-08-19T10:28:39.840Z,19.90
2022-08-19T10:29:39.841Z,25.90
2022-08-19T10:30:40.825Z,25.40
2022-08-19T10:32:00.785Z,24.80
2022-08-19T10:32:40.789Z,26.70
2022-08-19T10:33:53.872Z,24.50
2022-08-19T10:34:48.213Z,25.60
2022-08-19T10:35:56.258Z,26.00
2022-08-19T10:36:43.321Z,25.30
2022-08-19T10:37:51.903Z,25.30
2022-08-19T10:38:46.766Z,25.50
2022-08-19T10:39:43.485Z,25.20
2022-08-19T10:40:39.689Z,23.90
2022-08-19T10:41:54.780Z,21.60
2022-08-19T10:42:39.649Z,23.00
2022-08-19T10:43:39.639Z,22.00
2022-08-19T10:44:39.632Z,20.90
2022-08-19T10:45:52.288Z,20.90
2022-08-19T10:46:40.590Z,18.10
2022-08-19T10:47:39.603Z,18.40
2022-08-19T10:48:39.580Z,21.50
2022-08-19T10:49:39.563Z,20.50
2022-08-19T10:50:39.552Z,18.20
2022-08-19T10:51:46.534Z,19.70
2022-08-19T10:52:40.523Z,18.60
2022-08-19T10:53:40.523Z,18.90
2022-08-19T10:54:39.482Z,17.10
2022-08-19T10:55:39.491Z,17.10
2022-08-19T10:56:39.465Z,17.60
2022-08-19T10:58:01.847Z,16.20
2022-08-19T10:58:40.452Z,19.60
2022-08-19T10:59:39.423Z,20.20
2022-08-19T11:00:39.409Z,18.30
2022-08-19T11:01:39.443Z,19.00
2022-08-19T11:02:39.381Z,19.40
2022-08-19T11:03:39.391Z,19.70
2022-08-19T11:04:39.350Z,16.70
2022-08-19T11:05:39.975Z,19.40
2022-08-19T11:06:39.331Z,17.70
2022-08-19T11:07:39.337Z,16.90
2022-08-19T11:08:39.313Z,18.20
2022-08-19T11:09:39.297Z,17.80
2022-08-19T11:10:39.271Z,17.50
2022-08-19T11:11:39.452Z,17.60
2022-08-19T11:12:39.253Z,17.30
2022-08-19T11:13:39.249Z,18.00
2022-08-19T11:14:39.222Z,15.50
2022-08-19T11:15:39.222Z,17.30
2022-08-19T11:16:39.193Z,18.40
2022-08-19T11:17:39.187Z,15.80
2022-08-19T11:18:39.189Z,18.00
2022-08-19T11:19:39.165Z,13.90
2022-08-19T11:20:39.142Z,16.50
2022-08-19T11:21:39.142Z,14.40
2022-08-19T11:22:41.472Z,17.50
2022-08-19T11:23:39.125Z,15.10
2022-08-19T11:24:39.104Z,17.90
2022-08-19T11:25:39.082Z,18.10
2022-08-19T11:26:39.078Z,19.50
2022-08-19T11:27:39.050Z,20.80
2022-08-19T11:28:39.054Z,20.30
2022-08-19T11:29:39.035Z,17.20
2022-08-19T11:30:39.012Z,21.80
2022-08-19T11:31:39.005Z,19.50
2022-08-19T11:32:38.982Z,21.20
2022-08-19T11:33:38.990Z,16.00
2022-08-19T11:34:38.955Z,22.30
2022-08-19T11:35:38.954Z,19.20
2022-08-19T11:36:38.935Z,16.50
2022-08-19T11:37:38.914Z,18.40
2022-08-19T11:38:38.924Z,17.80
2022-08-19T11:39:38.975Z,19.00
2022-08-19T11:40:38.887Z,20.20
2022-08-19T11:41:38.873Z,18.60
2022-08-19T11:42:38.851Z,19.00
2022-08-19T11:43:38.852Z,19.30
2022-08-19T11:44:38.831Z,19.30
2022-08-19T11:45:38.816Z,18.30
2022-08-19T11:46:38.802Z,21.40
2022-08-19T11:47:38.975Z,21.30
2022-08-19T11:48:38.821Z,17.90
2022-08-19T11:49:38.765Z,17.90
2022-08-19T11:50:38.741Z,19.90
2022-08-19T11:51:38.824Z,22.20
2022-08-19T11:52:38.735Z,22.80
2022-08-19T11:53:38.727Z,21.10
2022-08-19T11:54:38.692Z,20.20
2022-08-19T11:55:38.696Z,24.60
2022-08-19T11:56:39.664Z,21.80
2022-08-19T11:57:38.662Z,22.20
2022-08-19T11:58:38.656Z,21.50
2022-08-19T11:59:38.654Z,23.80
2022-08-19T12:00:38.637Z,17.70
2022-08-19T12:01:38.604Z,21.10
2022-08-19T12:02:38.594Z,21.70
2022-08-19T12:03:38.651Z,23.10
2022-08-19T12:04:38.566Z,20.50
2022-08-19T12:05:38.565Z,20.10
2022-08-19T12:06:38.526Z,22.00
2022-08-19T12:07:38.526Z,20.60
2022-08-19T12:08:38.508Z,23.00
2022-08-19T12:09:38.505Z,20.40
2022-08-19T12:10:38.476Z,18.20
2022-08-19T12:11:38.468Z,18.70
2022-08-19T12:12:38.457Z,19.10
2022-08-19T12:13:38.462Z,19.30
2022-08-19T12:14:38.427Z,21.70
2022-08-19T12:15:38.411Z,20.50
2022-08-19T12:16:42.587Z,17.30
2022-08-19T12:17:39.387Z,17.10
2022-08-19T12:18:38.386Z,20.20
2022-08-19T12:19:38.390Z,17.10
2022-08-19T12:20:38.348Z,20.00
2022-08-19T12:21:38.347Z,20.50
2022-08-19T12:22:38.339Z,19.90
2022-08-19T12:23:38.319Z,19.60
2022-08-19T12:24:38.288Z,16.90
2022-08-19T12:25:38.293Z,19.40
2022-08-19T12:26:53.039Z,18.90
2022-08-19T12:27:40.862Z,18.00
2022-08-19T12:28:39.259Z,19.60
2022-08-19T12:29:38.233Z,16.00
2022-08-19T12:30:38.215Z,17.70
2022-08-19T12:31:38.200Z,17.70
2022-08-19T12:32:38.188Z,17.20
2022-08-19T12:33:38.203Z,16.40
2022-08-19T12:34:38.163Z,16.90
2022-08-19T12:35:38.148Z,17.50
2022-08-19T12:36:38.135Z,15.00
2022-08-19T12:37:38.130Z,16.00
2022-08-19T12:38:38.140Z,18.20
2022-08-19T12:39:38.146Z,16.90
2022-08-19T12:40:38.096Z,17.30
2022-08-19T12:41:38.074Z,15.50
2022-08-19T12:42:39.059Z,16.50
2022-08-19T12:43:38.070Z,19.80
2022-08-19T12:44:38.064Z,17.10
2022-08-19T12:45:38.018Z,18.80
2022-08-19T12:46:37.999Z,19.90
2022-08-19T12:47:38.037Z,17.00
2022-08-19T12:48:37.988Z,17.30
2022-08-19T12:49:53.261Z,16.60
2022-08-19T12:50:38.946Z,19.20
2022-08-19T12:51:37.939Z,18.20
2022-08-19T12:52:37.933Z,16.10
2022-08-19T12:53:39.159Z,16.10
2022-08-19T12:54:37.909Z,14.80
2022-08-19T12:55:37.909Z,18.40
2022-08-19T12:56:37.879Z,19.90